Latest Coastal Weather Observations for Cape Wessel

IDD60701

Issued at 7:41 pm CST Monday 16 September 2019 (issued every 10 minutes, with the page automatically refreshed every 10 minutes)

About coastal observations | Map of coastal stations | Coastal observations for NT | Marine services | Other Formats
Station Details ID: 200786 Name: CAPE WESSEL Lat: -11.00 Lon: 136.76 Height: 18.0 m
Data from the previous 72 hours. | See also: Recent months at Cape Wessel
Date/Time
CST
Wind Sea
Height
m
Swell Vis
km
Cloud Weather Temp
°C
Press
hPa
Rain since
9am
mm
Dir  Spd
kts
Gust
kts
Height
m
Period
s
Dir
16/07:30pm ESE 15 18 - - - - - - - 24.1 1014.5 0.0
16/07:00pm ESE 14 17 - - - - - - - 24.2 1014.2 0.0
16/06:30pm ESE 14 17 - - - - - - - 24.4 1013.9 0.0
16/06:00pm ESE 15 18 - - - - - - - 24.8 1013.9 0.0
16/05:30pm ESE 15 18 - - - - - - - 25.5 1013.8 0.0
16/05:00pm ESE 15 18 - - - - - - - 26.4 1013.7 0.0
16/04:30pm ESE 15 19 - - - - - - - 27.2 1013.7 0.0
16/04:00pm ESE 17 20 - - - - - - - 27.6 1013.7 0.0
16/03:30pm ESE 16 20 - - - - - - - 28.0 1013.8 0.0
16/03:00pm ESE 17 21 - - - - - - - 28.6 1014.0 0.0
16/02:30pm ESE 17 22 - - - - - - - 28.9 1014.1 0.0
16/02:00pm ESE 17 21 - - - - - - - 29.3 1014.3 0.0
16/01:30pm ESE 17 21 - - - - - - - 28.8 1014.4 0.0
16/01:00pm ESE 17 21 - - - - - - - 29.5 1014.6 0.0
16/12:30pm ESE 18 22 - - - - - - - 29.7 1015.1 0.0
16/12:00pm ESE 18 23 - - - - - - - 29.1 1015.6 0.0
16/11:30am E 18 23 - - - - - - - 29.2 1016.1 0.0
16/11:00am ESE 15 19 - - - - - - - 28.9 1016.5 0.0
16/10:30am ESE 17 21 - - - - - - - 28.5 1016.8 0.0
16/10:00am E 16 20 - - - - - - - 27.8 1016.8 0.0
16/09:30am E 15 20 - - - - - - - 27.1 1016.7 0.0
16/09:00am E 15 19 - - - - - - - 26.6 1016.6 2.8
16/08:30am E 17 22 - - - - - - - 24.9 1016.5 2.8
16/08:00am ESE 15 19 - - - - - - - 23.5 1016.3 2.8
16/07:30am E 11 14 - - - - - - - 23.6 1016.2 2.8
16/07:00am SE 10 12 - - - - - - - 23.7 1015.8 0.0
16/06:30am SE 11 14 - - - - - - - 24.2 1015.5 0.0
16/06:00am SE 11 14 - - - - - - - 24.2 1015.1 0.0
16/05:30am SE 13 15 - - - - - - - 23.9 1014.8 0.0
16/05:00am SE 12 14 - - - - - - - 24.1 1014.6 0.0
16/04:30am ESE 12 14 - - - - - - - 24.0 1014.5 0.0
16/04:00am ESE 11 13 - - - - - - - 23.6 1014.4 0.0
16/03:30am ESE 11 13 - - - - - - - 23.5 1014.2 0.0
16/03:00am ESE 11 14 - - - - - - - 23.6 1014.1 0.0
16/02:30am ESE 12 15 - - - - - - - 23.7 1014.2 0.0
16/02:00am ESE 12 15 - - - - - - - 23.9 1014.4 0.0
16/01:30am ESE 13 16 - - - - - - - 24.0 1014.6 0.0
16/01:00am ESE 13 16 - - - - - - - 23.7 1014.7 0.0
16/12:30am ESE 15 17 - - - - - - - 23.8 1015.0 0.0
16/12:00am ESE 14 17 - - - - - - - 23.9 1015.2 0.0
 
Date/Time
CST
Wind Sea
Height
m
Swell Vis
km
Cloud Weather Temp
°C
Press
hPa
Rain since
9am
mm
Dir  Spd
kts
Gust
kts
Height
m
Period
s
Dir
15/11:30pm ESE 15 18 - - - - - - - 24.0 1015.4 0.0
15/11:00pm ESE 15 18 - - - - - - - 23.9 1015.4 0.0
15/10:30pm ESE 15 19 - - - - - - - 23.9 1015.3 0.0
15/10:00pm ESE 14 17 - - - - - - - 23.9 1015.3 0.0
15/09:30pm ESE 16 19 - - - - - - - 24.1 1015.4 0.0
15/09:00pm ESE 15 19 - - - - - - - 24.1 1015.4 0.0
15/08:30pm ESE 16 20 - - - - - - - 24.2 1015.7 0.0
15/08:00pm SE 15 19 - - - - - - - 24.3 1015.7 0.0
15/07:30pm ESE 15 18 - - - - - - - 24.2 1015.2 0.0
15/07:00pm ESE 14 18 - - - - - - - 24.3 1015.0 0.0
15/06:30pm ESE 15 19 - - - - - - - 24.3 1014.9 0.0
15/06:00pm ESE 15 19 - - - - - - - 24.6 1014.3 0.0
15/05:30pm ESE 16 20 - - - - - - - 25.6 1014.1 0.0
15/05:00pm ESE 15 19 - - - - - - - 26.3 1014.0 0.0
15/04:30pm ESE 17 20 - - - - - - - 27.1 1013.9 0.0
15/04:00pm ESE 17 20 - - - - - - - 27.6 1013.6 0.0
15/03:30pm ESE 16 21 - - - - - - - 28.7 1013.5 0.0
15/03:00pm ESE 16 20 - - - - - - - 28.8 1013.4 0.0
15/02:30pm ESE 17 21 - - - - - - - 29.2 1013.6 0.0
15/02:00pm ESE 17 21 - - - - - - - 29.5 1013.9 0.0
15/01:30pm ESE 17 19 - - - - - - - 29.8 1014.2 0.0
15/01:00pm ESE 16 22 - - - - - - - 30.3 1014.6 0.0
15/12:30pm ESE 17 21 - - - - - - - 29.8 1015.0 0.0
15/12:00pm ESE 17 21 - - - - - - - 30.4 1015.5 0.0
15/11:30am ESE 15 19 - - - - - - - 30.1 1015.8 0.0
15/11:00am ESE 15 18 - - - - - - - 29.8 1016.1 0.0
15/10:30am ESE 15 18 - - - - - - - 28.9 1016.3 0.0
15/10:00am E 13 16 - - - - - - - 27.8 1016.6 0.0
15/09:31am E 17 27 - - - - - - - 27.4 1016.9 0.0
15/09:30am E 18 27 - - - - - - - 26.7 1016.9 0.0
15/09:00am SE 15 18 - - - - - - - 27.9 1017.0 0.0
15/08:30am SE 15 19 - - - - - - - 27.0 1016.7 0.0
15/08:00am SE 17 21 - - - - - - - 25.2 1016.7 0.0
15/07:30am SE 15 19 - - - - - - - 24.8 1016.4 0.0
15/07:00am SE 15 18 - - - - - - - 24.4 1016.1 0.0
15/06:30am SE 15 19 - - - - - - - 24.0 1015.6 0.0
15/06:00am SE 15 19 - - - - - - - 23.8 1015.2 0.0
15/05:30am SE 14 18 - - - - - - - 23.6 1014.9 0.0
15/05:00am SE 14 18 - - - - - - - 23.5 1014.6 0.0
15/04:30am SE 14 17 - - - - - - - 23.6 1014.6 0.0
15/04:00am SE 14 17 - - - - - - - 23.3 1014.4 0.0
15/03:30am ESE 14 16 - - - - - - - 23.4 1014.5 0.0
15/03:00am ESE 14 17 - - - - - - - 23.5 1014.8 0.0
15/02:30am ESE 13 16 - - - - - - - 23.2 1014.8 0.0
15/02:00am ESE 15 19 - - - - - - - 23.5 1015.1 0.0
15/01:30am ESE 14 17 - - - - - - - 23.4 1015.3 0.0
15/01:00am SE 14 17 - - - - - - - 23.9 1015.6 0.0
15/12:30am ESE 15 19 - - - - - - - 23.9 1015.8 0.0
15/12:00am ESE 14 18 - - - - - - - 23.8 1015.9 0.0
 
Date/Time
CST
Wind Sea
Height
m
Swell Vis
km
Cloud Weather Temp
°C
Press
hPa
Rain since
9am
mm
Dir  Spd
kts
Gust
kts
Height
m
Period
s
Dir
14/11:30pm SE 16 19 - - - - - - - 23.8 1016.0 0.0
14/11:00pm SE 15 18 - - - - - - - 23.7 1016.1 0.0
14/10:30pm SE 16 20 - - - - - - - 23.8 1016.2 0.0
14/10:00pm SE 17 21 - - - - - - - 23.9 1016.2 0.0
14/09:30pm SE 17 20 - - - - - - - 23.8 1016.3 0.0
14/09:00pm SE 16 20 - - - - - - - 23.9 1016.2 0.0
14/08:30pm SE 17 21 - - - - - - - 23.9 1016.0 0.0
14/08:00pm SE 18 23 - - - - - - - 24.2 1015.8 0.0
14/07:30pm SE 18 21 - - - - - - - 24.2 1015.5 0.0
14/07:00pm SE 18 23 - - - - - - - 24.3 1015.1 0.0
14/06:30pm SE 18 22 - - - - - - - 24.3 1014.9 0.0
14/06:00pm SE 18 21 - - - - - - - 24.8 1014.7 0.0
14/05:30pm SE 18 22 - - - - - - - 25.7 1014.3 0.0
14/05:00pm SE 17 20 - - - - - - - 26.6 1014.1 0.0
14/04:30pm SE 17 21 - - - - - - - 27.3 1013.9 0.0
14/04:00pm SE 16 21 - - - - - - - 28.3 1013.9 0.0
14/03:30pm SE 17 21 - - - - - - - 28.8 1013.8 0.0
14/03:00pm SE 15 19 - - - - - - - 29.5 1014.0 0.0
14/02:30pm SE 17 21 - - - - - - - 29.2 1014.2 0.0
14/02:00pm SE 17 21 - - - - - - - 29.7 1014.5 0.0
14/01:30pm ESE 17 21 - - - - - - - 29.9 1014.7 0.0
14/01:00pm ESE 17 22 - - - - - - - 30.3 1015.3 0.0
14/12:30pm ESE 19 24 - - - - - - - 30.1 1015.9 0.0
14/12:00pm ESE 18 22 - - - - - - - 29.7 1016.3 0.0
14/11:30am ESE 18 23 - - - - - - - 29.6 1016.8 0.0
14/11:00am ESE 18 23 - - - - - - - 29.2 1016.9 0.0
14/10:30am ESE 21 25 - - - - - - - 28.8 1017.1 0.0
14/10:00am ESE 17 22 - - - - - - - 29.0 1017.2 0.0
14/09:30am ESE 18 23 - - - - - - - 26.8 1017.2 0.0
14/09:00am ESE 18 22 - - - - - - - 26.2 1017.2 0.0
14/08:30am ESE 22 28 - - - - - - - 24.8 1017.1 0.0
14/08:00am SE 19 23 - - - - - - - 25.1 1016.9 0.0
14/07:30am SE 19 24 - - - - - - - 24.5 1016.7 0.0
14/07:00am SE 19 23 - - - - - - - 24.2 1016.4 0.0
14/06:30am SE 18 23 - - - - - - - 23.5 1015.9 0.0
14/06:00am SE 18 22 - - - - - - - 23.4 1015.7 0.0
14/05:30am SE 18 22 - - - - - - - 23.3 1015.5 0.0
14/05:00am SE 18 22 - - - - - - - 23.4 1015.3 0.0
14/04:30am SE 17 21 - - - - - - - 23.3 1015.2 0.0
14/04:00am SSE 17 21 - - - - - - - 23.1 1015.1 0.0
14/03:30am SE 17 21 - - - - - - - 23.2 1015.2 0.0
14/03:00am SE 15 19 - - - - - - - 23.0 1015.2 0.0
14/02:30am SE 15 18 - - - - - - - 23.1 1015.6 0.0
14/02:00am SE 13 16 - - - - - - - 23.1 1015.7 0.0
14/01:30am SSE 13 16 - - - - - - - 23.3 1016.0 0.0
14/01:00am SSE 14 18 - - - - - - - 23.3 1016.4 0.0
14/12:30am SE 15 18 - - - - - - - 23.2 1016.6 0.0
14/12:00am SSE 17 20 - - - - - - - 23.4 1016.8 0.0
 
Date/Time
CST
Wind Sea
Height
m
Swell Vis
km
Cloud Weather Temp
°C
Press
hPa
Rain since
9am
mm
Dir  Spd
kts
Gust
kts
Height
m
Period
s
Dir
13/11:30pm SE 18 22 - - - - - - - 23.6 1016.9 0.0
13/11:00pm SE 17 22 - - - - - - - 23.6 1017.1 0.0
13/10:30pm SE 18 21 - - - - - - - 23.7 1017.3 0.0
13/10:00pm SE 18 21 - - - - - - - 24.0 1017.2 0.0
13/09:30pm SE 19 22 - - - - - - - 24.0 1017.2 0.0
13/09:00pm SE 19 23 - - - - - - - 24.1 1017.1 0.0
13/08:30pm SE 19 23 - - - - - - - 24.0 1016.7 0.0
13/08:00pm SE 21 25 - - - - - - - 24.2 1016.6 0.0

Other formats

Comma delimited format used in spreadsheet applications
http://www.bom.gov.au/fwo/IDD60701/IDD60701.94147.axf

JavaScript Object Notation format (JSON) in row-major order
http://www.bom.gov.au/fwo/IDD60701/IDD60701.94147.json

Data quality

Most of these data are generated automatically and are frequently updated. Quality checks on data are not normally performed. It is possible for incorrect values to appear. Refer to information at About Latest Weather Observations and please check the disclaimer before using these data.